createdAt,value
2023-02-08T00:01:01.086Z,27.33
2023-02-08T00:03:29.270Z,26.77
2023-02-08T00:05:57.153Z,26.95
2023-02-08T00:08:24.716Z,26.55
2023-02-08T00:10:52.662Z,27.25
2023-02-08T00:13:20.348Z,27.23
2023-02-08T00:15:48.601Z,27.48
2023-02-08T00:18:16.282Z,27.52
2023-02-08T00:20:44.539Z,28.02
2023-02-08T00:23:13.329Z,27.77
2023-02-08T00:25:42.132Z,28.20
2023-02-08T00:28:14.390Z,26.85
2023-02-08T00:30:44.004Z,26.00
2023-02-08T00:33:12.418Z,27.25
2023-02-08T00:35:42.277Z,26.00
2023-02-08T00:38:09.953Z,27.40
2023-02-08T00:40:37.753Z,27.50
2023-02-08T00:43:06.857Z,28.05
2023-02-08T00:45:35.690Z,29.88
2023-02-08T00:48:03.538Z,28.27
2023-02-08T00:50:31.147Z,27.58
2023-02-08T00:52:59.964Z,28.20
2023-02-08T00:55:27.559Z,27.35
2023-02-08T00:57:55.617Z,28.17
2023-02-08T01:00:23.704Z,27.67
2023-02-08T01:02:51.489Z,27.60
2023-02-08T01:05:19.231Z,28.38
2023-02-08T01:07:47.114Z,27.73
2023-02-08T01:10:14.976Z,28.40
2023-02-08T01:12:42.793Z,28.20
2023-02-08T01:15:10.412Z,25.35
2023-02-08T01:17:39.796Z,27.58
2023-02-08T01:20:07.832Z,27.52
2023-02-08T01:22:37.034Z,27.10
2023-02-08T01:25:04.821Z,26.77
2023-02-08T01:27:32.642Z,25.80
2023-02-08T01:30:00.201Z,26.75
2023-02-08T01:32:29.485Z,27.05
2023-02-08T01:34:57.232Z,27.38
2023-02-08T01:37:25.130Z,26.13
2023-02-08T01:39:52.644Z,28.25
2023-02-08T01:42:22.477Z,27.25
2023-02-08T01:45:20.816Z,28.52
2023-02-08T01:47:55.104Z,26.10
2023-02-08T01:50:26.489Z,28.83
2023-02-08T01:52:54.437Z,28.02
2023-02-08T01:55:38.112Z,27.63
2023-02-08T01:58:10.047Z,27.10
2023-02-08T02:00:37.912Z,27.27
2023-02-08T02:03:07.286Z,28.08
2023-02-08T02:05:45.345Z,27.67
2023-02-08T02:08:13.561Z,28.67
2023-02-08T02:10:42.593Z,27.83
2023-02-08T02:13:18.444Z,27.77
2023-02-08T02:15:46.497Z,27.20
2023-02-08T02:18:23.223Z,27.63
2023-02-08T02:20:53.832Z,26.25
2023-02-08T02:23:42.949Z,29.92
2023-02-08T02:26:38.530Z,28.60
2023-02-08T02:29:22.734Z,28.83
2023-02-08T02:32:12.325Z,31.33
2023-02-08T02:34:43.112Z,27.75
2023-02-08T02:37:14.303Z,27.50
2023-02-08T02:40:15.135Z,28.27
2023-02-08T02:43:30.676Z,28.90
2023-02-08T02:46:13.925Z,28.48
2023-02-08T02:49:01.752Z,29.27
2023-02-08T02:52:01.200Z,27.30
2023-02-08T02:54:42.267Z,27.20
2023-02-08T02:57:16.330Z,27.80
2023-02-08T02:59:46.760Z,27.42
2023-02-08T03:02:15.002Z,28.08
2023-02-08T03:04:42.521Z,26.65
2023-02-08T03:07:32.012Z,27.55
2023-02-08T03:10:17.803Z,28.33
2023-02-08T03:12:58.605Z,27.95
2023-02-08T03:15:51.500Z,27.85
2023-02-08T03:18:35.059Z,27.95
2023-02-08T03:21:08.262Z,27.42
2023-02-08T03:24:07.582Z,27.92
2023-02-08T03:26:50.467Z,28.48
2023-02-08T03:29:37.196Z,28.88
2023-02-08T03:32:17.202Z,28.83
2023-02-08T03:34:48.081Z,28.73
2023-02-08T03:37:35.878Z,30.50
2023-02-08T03:40:14.033Z,29.48
2023-02-08T03:42:43.012Z,30.10
2023-02-08T03:45:20.472Z,30.35
2023-02-08T03:47:52.450Z,30.08
2023-02-08T03:50:23.122Z,29.33
2023-02-08T03:52:52.237Z,30.45
2023-02-08T03:55:31.148Z,30.83
2023-02-08T03:58:05.119Z,31.33
2023-02-08T04:00:39.528Z,28.77
2023-02-08T04:03:17.428Z,30.42
2023-02-08T04:05:45.558Z,30.60
2023-02-08T04:08:13.355Z,31.63
2023-02-08T04:10:41.435Z,32.15
2023-02-08T04:13:09.166Z,31.15
2023-02-08T04:15:37.082Z,32.72
2023-02-08T04:18:05.569Z,32.72
2023-02-08T04:20:33.489Z,32.25
2023-02-08T04:23:01.090Z,34.08
2023-02-08T04:25:29.108Z,31.95
2023-02-08T04:27:56.923Z,31.70
2023-02-08T04:30:24.809Z,32.70
2023-02-08T04:32:52.358Z,35.00
2023-02-08T04:35:20.202Z,34.35
2023-02-08T04:37:47.964Z,35.78
2023-02-08T04:40:15.837Z,36.03
2023-02-08T04:42:43.451Z,35.03
2023-02-08T04:45:11.391Z,33.10
2023-02-08T04:47:39.058Z,31.95
2023-02-08T04:50:07.122Z,31.85
2023-02-08T04:52:34.739Z,32.47
2023-02-08T04:55:02.696Z,30.27
2023-02-08T04:57:30.270Z,29.58
2023-02-08T05:00:00.272Z,27.83
2023-02-08T05:02:28.185Z,28.67
2023-02-08T05:04:56.168Z,28.23
2023-02-08T05:07:23.957Z,24.38
2023-02-08T05:09:51.802Z,25.02
2023-02-08T05:12:19.292Z,24.65
2023-02-08T05:14:47.162Z,24.42
2023-02-08T05:17:14.726Z,25.38
2023-02-08T05:19:42.541Z,24.55
2023-02-08T05:22:10.136Z,25.25
2023-02-08T05:24:37.927Z,24.40
2023-02-08T05:27:05.515Z,24.40
2023-02-08T05:29:33.398Z,25.35
2023-02-08T05:32:01.211Z,24.13
2023-02-08T05:34:29.080Z,25.23
2023-02-08T05:36:56.767Z,22.75
2023-02-08T05:39:24.582Z,24.75
2023-02-08T05:41:52.213Z,24.10
2023-02-08T05:44:20.167Z,25.75
2023-02-08T05:46:47.851Z,26.02
2023-02-08T05:49:15.740Z,26.85
2023-02-08T05:51:43.453Z,26.45
2023-02-08T05:54:11.477Z,27.95
2023-02-08T05:56:39.109Z,28.60
2023-02-08T05:59:06.994Z,23.60
2023-02-08T06:01:34.558Z,24.42
2023-02-08T06:04:02.573Z,22.25
2023-02-08T06:06:30.449Z,22.15
2023-02-08T06:08:58.326Z,22.50
2023-02-08T06:11:25.866Z,22.88
2023-02-08T06:13:53.754Z,22.98
2023-02-08T06:16:21.451Z,22.50
2023-02-08T06:18:49.513Z,23.42
2023-02-08T06:21:17.104Z,25.27
2023-02-08T06:23:45.097Z,24.25
2023-02-08T06:26:12.765Z,24.42
2023-02-08T06:28:40.734Z,23.70
2023-02-08T06:31:08.395Z,22.60
2023-02-08T06:33:36.265Z,23.02
2023-02-08T06:36:04.037Z,23.02
2023-02-08T06:38:32.054Z,22.38
2023-02-08T06:40:59.627Z,23.83
2023-02-08T06:43:27.658Z,20.92
2023-02-08T06:45:55.270Z,23.40
2023-02-08T06:48:23.211Z,23.67
2023-02-08T06:50:53.839Z,24.15
2023-02-08T06:53:21.704Z,24.20
2023-02-08T06:55:52.717Z,25.30
2023-02-08T06:58:21.028Z,23.05
2023-02-08T07:00:48.904Z,22.85
2023-02-08T07:03:17.736Z,20.55
2023-02-08T07:06:03.461Z,17.02
2023-02-08T07:08:33.788Z,17.63
2023-02-08T07:11:05.725Z,18.80
2023-02-08T07:13:33.558Z,15.40
2023-02-08T07:16:01.179Z,17.15
2023-02-08T07:18:29.086Z,19.10
2023-02-08T07:20:56.870Z,19.98
2023-02-08T07:23:25.118Z,18.88
2023-02-08T07:26:05.525Z,15.13
2023-02-08T07:28:33.722Z,13.95
2023-02-08T07:31:05.333Z,15.18
2023-02-08T07:33:33.214Z,14.55
2023-02-08T07:36:01.083Z,14.02
2023-02-08T07:38:28.953Z,12.93
2023-02-08T07:41:08.244Z,13.65
2023-02-08T07:43:37.819Z,12.57
2023-02-08T07:46:12.263Z,12.77
2023-02-08T07:51:09.028Z,11.52
2023-02-08T07:53:37.261Z,12.75
2023-02-08T07:56:05.497Z,11.50
2023-02-08T07:58:33.628Z,11.52
2023-02-08T08:01:07.046Z,11.23
2023-02-08T08:03:44.155Z,11.02
2023-02-08T08:06:11.715Z,11.25
2023-02-08T08:08:39.794Z,11.55
2023-02-08T08:11:07.367Z,10.20
2023-02-08T08:13:35.270Z,11.02
2023-02-08T08:16:02.866Z,10.55
2023-02-08T08:18:31.408Z,9.93
2023-02-08T08:20:58.925Z,10.43
2023-02-08T08:23:29.113Z,10.45
2023-02-08T08:25:56.844Z,8.48
2023-02-08T08:28:24.924Z,8.73
2023-02-08T08:30:52.760Z,9.35
2023-02-08T08:33:21.145Z,8.20
2023-02-08T08:35:49.079Z,8.70
2023-02-08T08:38:17.002Z,7.95
2023-02-08T08:40:44.600Z,9.00
2023-02-08T08:43:12.428Z,7.45
2023-02-08T08:45:39.957Z,9.02
2023-02-08T08:48:07.827Z,7.75
2023-02-08T08:50:35.462Z,8.80
2023-02-08T08:53:03.304Z,8.90
2023-02-08T08:55:31.166Z,8.75
2023-02-08T08:57:59.019Z,8.27
2023-02-08T09:00:27.297Z,8.88
2023-02-08T09:02:55.204Z,9.13
2023-02-08T09:05:22.998Z,8.95
2023-02-08T09:07:50.952Z,7.88
2023-02-08T09:10:18.729Z,8.60
2023-02-08T09:12:46.739Z,8.52
2023-02-08T09:15:14.394Z,8.60
2023-02-08T09:17:42.273Z,8.43
2023-02-08T09:20:10.782Z,8.95
2023-02-08T09:22:38.585Z,7.60
2023-02-08T09:25:07.750Z,8.10
2023-02-08T09:27:36.267Z,7.53
2023-02-08T09:30:05.954Z,8.13
2023-02-08T09:32:34.549Z,7.85
2023-02-08T09:35:02.745Z,8.23
2023-02-08T09:37:30.945Z,7.35
2023-02-08T09:40:00.259Z,7.85
2023-02-08T09:42:38.628Z,7.18
2023-02-08T09:45:36.706Z,7.07
2023-02-08T09:48:15.494Z,7.47
2023-02-08T09:50:52.892Z,7.60
2023-02-08T09:53:35.168Z,7.55
2023-02-08T09:56:07.380Z,7.15
2023-02-08T09:58:49.877Z,6.90
2023-02-08T10:01:21.788Z,6.20
2023-02-08T10:03:53.723Z,6.05
2023-02-08T10:06:22.008Z,5.75
2023-02-08T10:08:52.463Z,5.90
2023-02-08T10:11:28.926Z,5.35
2023-02-08T10:14:18.282Z,4.88
2023-02-08T10:16:55.087Z,4.63
2023-02-08T10:19:42.307Z,3.95
2023-02-08T10:22:25.084Z,3.88
2023-02-08T10:25:04.982Z,3.92
2023-02-08T10:27:58.528Z,3.20
2023-02-08T10:30:26.444Z,4.55
2023-02-08T10:33:06.697Z,4.00
2023-02-08T10:35:44.510Z,4.28
2023-02-08T10:38:44.088Z,4.13
2023-02-08T10:41:20.728Z,2.20
2023-02-08T10:44:14.230Z,3.13
2023-02-08T10:46:52.165Z,2.83
2023-02-08T10:49:31.616Z,3.78
2023-02-08T10:51:59.748Z,2.70
2023-02-08T10:54:27.382Z,2.50
2023-02-08T10:57:05.906Z,2.80
2023-02-08T10:59:46.248Z,3.45
2023-02-08T11:02:40.973Z,3.55
2023-02-08T11:05:13.460Z,3.63
2023-02-08T11:07:41.735Z,3.17
2023-02-08T11:10:21.183Z,3.67
2023-02-08T11:13:15.788Z,3.20
2023-02-08T11:15:52.676Z,3.63
2023-02-08T11:18:33.806Z,3.83
2023-02-08T11:21:20.905Z,4.32
2023-02-08T11:23:52.847Z,4.47
2023-02-08T11:26:33.267Z,4.60
2023-02-08T11:29:06.039Z,4.75
2023-02-08T11:31:36.165Z,4.30
2023-02-08T11:34:10.588Z,5.05
2023-02-08T11:36:47.523Z,4.72
2023-02-08T11:39:25.965Z,4.32
2023-02-08T11:41:58.207Z,4.65
2023-02-08T11:44:34.045Z,4.75
2023-02-08T11:47:05.625Z,4.90
2023-02-08T11:49:43.049Z,4.50
2023-02-08T11:52:21.517Z,4.53
2023-02-08T11:54:49.408Z,4.15
2023-02-08T11:57:19.263Z,3.92
2023-02-08T11:59:48.495Z,3.53
2023-02-08T12:02:37.343Z,3.45
2023-02-08T12:05:13.596Z,3.60
2023-02-08T12:07:57.680Z,4.10
2023-02-08T12:10:45.375Z,4.00
2023-02-08T12:13:39.205Z,3.95
2023-02-08T12:16:34.423Z,4.05
2023-02-08T12:19:05.048Z,4.32
2023-02-08T12:21:45.267Z,3.88
2023-02-08T12:24:35.119Z,4.43
2023-02-08T12:27:27.567Z,4.00
2023-02-08T12:30:16.946Z,4.38
2023-02-08T12:33:06.283Z,4.00
2023-02-08T12:36:02.756Z,3.72
2023-02-08T12:39:01.737Z,4.50
2023-02-08T12:41:49.129Z,3.80
2023-02-08T12:44:43.937Z,3.92
2023-02-08T12:50:17.076Z,3.85
2023-02-08T12:52:52.078Z,4.32
2023-02-08T12:55:29.317Z,3.83
2023-02-08T12:58:03.235Z,3.80
2023-02-08T13:00:35.133Z,4.60
2023-02-08T13:03:34.057Z,3.97
2023-02-08T13:06:07.978Z,4.13
2023-02-08T13:08:49.563Z,4.28
2023-02-08T13:11:45.434Z,4.00
2023-02-08T13:14:25.602Z,3.92
2023-02-08T13:16:58.560Z,4.15
2023-02-08T13:19:59.759Z,4.80
2023-02-08T13:22:34.749Z,3.88
2023-02-08T13:25:07.834Z,4.20
2023-02-08T13:30:05.506Z,4.18
2023-02-08T13:32:45.003Z,4.72
2023-02-08T13:35:18.146Z,4.60
2023-02-08T13:37:55.513Z,5.03
2023-02-08T13:40:30.318Z,4.68
2023-02-08T13:43:02.644Z,4.25
2023-02-08T13:45:38.046Z,4.85
2023-02-08T13:48:08.745Z,4.65
2023-02-08T13:50:59.149Z,5.25
2023-02-08T13:53:39.085Z,5.18
2023-02-08T13:56:11.327Z,5.22
2023-02-08T13:58:57.670Z,5.00
2023-02-08T14:01:28.870Z,4.70
2023-02-08T14:04:09.830Z,4.93
2023-02-08T14:07:00.536Z,5.15
2023-02-08T14:10:02.872Z,4.60
2023-02-08T14:12:54.375Z,5.25
2023-02-08T14:15:32.078Z,4.80
2023-02-08T14:18:01.321Z,5.13
2023-02-08T14:20:40.030Z,5.20
2023-02-08T14:23:22.155Z,5.22
2023-02-08T14:25:53.499Z,5.85
2023-02-08T14:28:45.935Z,5.55
2023-02-08T14:31:17.263Z,5.05
2023-02-08T14:33:55.360Z,5.25
2023-02-08T14:36:34.764Z,5.13
2023-02-08T14:39:24.415Z,5.70
2023-02-08T14:42:03.842Z,5.55
2023-02-08T14:44:43.445Z,5.72
2023-02-08T14:47:31.578Z,5.28
2023-02-08T14:50:15.676Z,5.63
2023-02-08T14:52:52.712Z,5.90
2023-02-08T14:55:27.699Z,5.50
2023-02-08T14:57:58.049Z,5.80
2023-02-08T15:00:32.645Z,5.82
2023-02-08T15:03:02.153Z,5.93
2023-02-08T15:05:44.153Z,6.30
2023-02-08T15:08:12.885Z,5.75
2023-02-08T15:10:45.161Z,7.50
2023-02-08T15:13:22.175Z,6.45
2023-02-08T15:15:54.387Z,6.18
2023-02-08T15:18:40.833Z,6.82
2023-02-08T15:21:20.592Z,6.97
2023-02-08T15:24:13.049Z,8.13
2023-02-08T15:26:52.489Z,7.22
2023-02-08T15:29:42.950Z,6.97
2023-02-08T15:32:18.960Z,7.50
2023-02-08T15:34:56.222Z,7.20
2023-02-08T15:37:24.574Z,7.72
2023-02-08T15:39:55.985Z,7.88
2023-02-08T15:42:26.860Z,8.18
2023-02-08T15:44:55.160Z,7.55
2023-02-08T15:47:31.537Z,8.55
2023-02-08T15:50:00.370Z,8.73
2023-02-08T15:52:34.648Z,7.90
2023-02-08T15:55:05.965Z,8.32
2023-02-08T15:57:36.774Z,10.10
2023-02-08T16:00:18.095Z,8.25
2023-02-08T16:02:52.537Z,9.23
2023-02-08T16:05:27.295Z,8.70
2023-02-08T16:07:56.065Z,10.48
2023-02-08T16:10:39.162Z,11.00
2023-02-08T16:13:22.574Z,10.73
2023-02-08T16:16:03.834Z,11.07
2023-02-08T16:18:50.047Z,10.13
2023-02-08T16:21:39.758Z,10.30
2023-02-08T16:24:13.563Z,18.90
2023-02-08T16:26:59.645Z,23.70
2023-02-08T16:29:34.934Z,29.98
2023-02-08T16:32:26.499Z,24.70
2023-02-08T16:34:54.522Z,17.70
2023-02-08T16:37:32.118Z,19.52
2023-02-08T16:40:02.650Z,20.38
2023-02-08T16:42:35.916Z,26.80
2023-02-08T16:45:16.379Z,47.67
2023-02-08T16:47:50.565Z,32.33
2023-02-08T16:50:25.347Z,25.13
2023-02-08T16:53:01.382Z,23.52
2023-02-08T16:55:32.838Z,31.80
2023-02-08T16:58:00.983Z,38.70
2023-02-08T17:00:34.862Z,38.28
2023-02-08T17:03:02.738Z,44.40
2023-02-08T17:05:35.530Z,44.25
2023-02-08T17:08:07.988Z,50.90
2023-02-08T17:10:35.730Z,47.10
2023-02-08T17:13:19.472Z,45.35
2023-02-08T17:15:49.611Z,29.48
2023-02-08T17:18:18.208Z,31.55
2023-02-08T17:20:46.706Z,21.30
2023-02-08T17:23:15.838Z,17.60
2023-02-08T17:25:43.966Z,24.90
2023-02-08T17:28:19.395Z,27.55
2023-02-08T17:30:48.719Z,34.90
2023-02-08T17:33:19.986Z,35.05
2023-02-08T17:35:49.833Z,27.15
2023-02-08T17:38:19.567Z,40.58
2023-02-08T17:40:47.491Z,41.45
2023-02-08T17:43:15.527Z,35.83
2023-02-08T17:45:44.548Z,36.75
2023-02-08T17:48:14.488Z,45.22
2023-02-08T17:50:46.544Z,38.45
2023-02-08T17:53:15.239Z,40.00
2023-02-08T17:55:44.135Z,44.70
2023-02-08T17:58:12.615Z,42.55
2023-02-08T18:00:40.424Z,40.55
2023-02-08T18:03:08.594Z,41.88
2023-02-08T18:05:36.980Z,60.70
2023-02-08T18:08:05.050Z,59.55
2023-02-08T18:10:32.751Z,53.10
2023-02-08T18:13:00.558Z,50.97
2023-02-08T18:15:28.409Z,60.78
2023-02-08T18:17:56.750Z,57.67
2023-02-08T18:20:24.331Z,66.03
2023-02-08T18:22:52.278Z,51.13
2023-02-08T18:25:20.628Z,48.25
2023-02-08T18:27:48.831Z,49.30
2023-02-08T18:30:16.392Z,55.72
2023-02-08T18:32:44.644Z,48.58
2023-02-08T18:35:12.440Z,45.28
2023-02-08T18:37:40.558Z,44.88
2023-02-08T18:40:09.854Z,46.97
2023-02-08T18:42:37.847Z,45.75
2023-02-08T18:45:07.080Z,47.03
2023-02-08T18:47:39.465Z,48.13
2023-02-08T18:50:07.498Z,47.88
2023-02-08T18:52:35.620Z,51.67
2023-02-08T18:55:03.567Z,59.95
2023-02-08T18:57:31.524Z,57.75
2023-02-08T18:59:59.199Z,73.93
2023-02-08T19:02:27.454Z,65.95
2023-02-08T19:04:55.395Z,57.60
2023-02-08T19:07:23.240Z,61.13
2023-02-08T19:09:51.224Z,62.05
2023-02-08T19:12:19.071Z,61.72
2023-02-08T19:14:50.771Z,63.63
2023-02-08T19:17:18.923Z,68.18
2023-02-08T19:19:47.047Z,66.65
2023-02-08T19:22:15.131Z,63.78
2023-02-08T19:24:43.086Z,67.75
2023-02-08T19:27:10.852Z,68.35
2023-02-08T19:29:39.116Z,67.20
2023-02-08T19:32:08.144Z,66.72
2023-02-08T19:34:36.164Z,63.65
2023-02-08T19:37:03.838Z,64.95
2023-02-08T19:39:31.791Z,63.83
2023-02-08T19:41:59.519Z,61.67
2023-02-08T19:44:30.305Z,61.05
2023-02-08T19:46:58.425Z,60.17
2023-02-08T19:49:27.322Z,61.67
2023-02-08T19:51:55.648Z,52.20
2023-02-08T19:54:24.302Z,55.60
2023-02-08T19:56:54.652Z,65.03
2023-02-08T19:59:28.423Z,51.45
2023-02-08T20:01:56.435Z,55.95
2023-02-08T20:04:25.018Z,44.15
2023-02-08T20:06:54.156Z,47.58
2023-02-08T20:09:22.528Z,37.72
2023-02-08T20:11:57.136Z,53.72
2023-02-08T20:14:29.225Z,49.92
2023-02-08T20:16:57.332Z,47.15
2023-02-08T20:19:25.821Z,49.67
2023-02-08T20:21:53.655Z,51.70
2023-02-08T20:24:21.568Z,49.28
2023-02-08T20:26:49.867Z,48.97
2023-02-08T20:29:18.468Z,53.28
2023-02-08T20:31:48.759Z,47.75
2023-02-08T20:34:18.916Z,49.33
2023-02-08T20:37:05.772Z,38.60
2023-02-08T20:39:36.178Z,40.80
2023-02-08T20:42:04.357Z,39.50
2023-02-08T20:44:32.533Z,41.35
2023-02-08T20:47:00.642Z,39.92
2023-02-08T20:49:30.814Z,38.95
2023-02-08T20:51:58.652Z,45.80
2023-02-08T20:54:26.535Z,43.75
2023-02-08T20:56:54.732Z,42.65
2023-02-08T20:59:22.781Z,43.13
2023-02-08T21:01:50.898Z,44.42
2023-02-08T21:04:23.242Z,46.50
2023-02-08T21:06:52.265Z,54.58
2023-02-08T21:09:21.128Z,49.63
2023-02-08T21:11:49.939Z,47.88
2023-02-08T21:14:20.943Z,46.00
2023-02-08T21:16:51.437Z,48.92
2023-02-08T21:19:20.944Z,50.70
2023-02-08T21:21:54.157Z,49.88
2023-02-08T21:24:23.955Z,49.15
2023-02-08T21:26:53.495Z,48.13
2023-02-08T21:29:22.368Z,48.60
2023-02-08T21:31:53.556Z,57.72
2023-02-08T21:34:21.804Z,61.65
2023-02-08T21:36:49.391Z,63.70
2023-02-08T21:39:17.592Z,63.45
2023-02-08T21:41:45.562Z,66.03
2023-02-08T21:44:13.508Z,71.05
2023-02-08T21:46:41.099Z,64.07
2023-02-08T21:49:28.869Z,59.78
2023-02-08T21:52:15.213Z,61.65
2023-02-08T21:54:44.302Z,56.47
2023-02-08T21:57:19.638Z,52.85
2023-02-08T21:59:50.371Z,51.92
2023-02-08T22:02:25.477Z,51.47
2023-02-08T22:04:55.377Z,52.67
2023-02-08T22:07:24.387Z,57.78
2023-02-08T22:09:52.520Z,77.60
2023-02-08T22:12:22.532Z,73.88
2023-02-08T22:14:51.034Z,72.78
2023-02-08T22:17:18.791Z,72.55
2023-02-08T22:19:46.668Z,52.28
2023-02-08T22:22:14.320Z,53.10
2023-02-08T22:24:42.289Z,68.57
2023-02-08T22:27:10.582Z,60.70
2023-02-08T22:29:38.441Z,56.35
2023-02-08T22:32:07.552Z,55.92
2023-02-08T22:34:37.150Z,49.65
2023-02-08T22:37:04.834Z,48.42
2023-02-08T22:39:34.238Z,45.20
2023-02-08T22:42:07.963Z,49.67
2023-02-08T22:44:37.007Z,41.05
2023-02-08T22:47:08.685Z,43.95
2023-02-08T22:49:37.142Z,38.42
2023-02-08T22:52:05.951Z,34.75
2023-02-08T22:54:34.779Z,37.05
2023-02-08T22:57:02.506Z,32.75
2023-02-08T22:59:30.480Z,32.83
2023-02-08T23:01:58.682Z,31.45
2023-02-08T23:04:26.599Z,31.98
2023-02-08T23:06:54.522Z,30.25
2023-02-08T23:09:22.839Z,29.02
2023-02-08T23:11:50.770Z,29.13
2023-02-08T23:14:19.106Z,26.90
2023-02-08T23:16:46.674Z,25.48
2023-02-08T23:19:16.694Z,26.33
2023-02-08T23:21:44.664Z,27.92
2023-02-08T23:24:12.986Z,29.42
2023-02-08T23:26:40.734Z,26.90
2023-02-08T23:29:08.564Z,25.90
2023-02-08T23:31:39.066Z,25.52
2023-02-08T23:34:07.021Z,25.92
2023-02-08T23:36:34.583Z,27.73
2023-02-08T23:39:03.461Z,28.27
2023-02-08T23:41:31.145Z,27.85
2023-02-08T23:43:59.010Z,28.33
2023-02-08T23:46:28.627Z,30.55
2023-02-08T23:48:57.328Z,30.15
2023-02-08T23:51:25.630Z,29.80
2023-02-08T23:53:55.312Z,30.30
2023-02-08T23:56:28.305Z,31.02
2023-02-08T23:58:58.338Z,30.95
